sensor_id;sensor_type;location;lat;lon;timestamp;temperature;humidity
4103;DHT22;2065;49.790;9.620;2023-04-01T00:01:07;14.40;57.40
4103;DHT22;2065;49.790;9.620;2023-04-01T00:03:34;14.30;57.70
4103;DHT22;2065;49.790;9.620;2023-04-01T00:06:03;14.20;57.70
4103;DHT22;2065;49.790;9.620;2023-04-01T00:08:30;14.10;57.80
4103;DHT22;2065;49.790;9.620;2023-04-01T00:10:57;14.10;57.40
4103;DHT22;2065;49.790;9.620;2023-04-01T00:13:26;14.00;57.70
4103;DHT22;2065;49.790;9.620;2023-04-01T00:15:55;14.00;58.20
4103;DHT22;2065;49.790;9.620;2023-04-01T00:18:22;14.10;57.60
4103;DHT22;2065;49.790;9.620;2023-04-01T00:20:51;13.90;57.60
4103;DHT22;2065;49.790;9.620;2023-04-01T00:23:18;14.00;58.00
4103;DHT22;2065;49.790;9.620;2023-04-01T00:25:46;14.10;58.00
4103;DHT22;2065;49.790;9.620;2023-04-01T00:28:15;14.20;57.40
4103;DHT22;2065;49.790;9.620;2023-04-01T00:30:42;14.30;56.70
4103;DHT22;2065;49.790;9.620;2023-04-01T00:33:11;14.30;57.30
4103;DHT22;2065;49.790;9.620;2023-04-01T00:35:38;14.30;57.20
4103;DHT22;2065;49.790;9.620;2023-04-01T00:38:05;14.20;57.30
4103;DHT22;2065;49.790;9.620;2023-04-01T00:40:34;14.00;58.50
4103;DHT22;2065;49.790;9.620;2023-04-01T00:43:02;14.10;58.10
4103;DHT22;2065;49.790;9.620;2023-04-01T00:45:34;14.00;58.10
4103;DHT22;2065;49.790;9.620;2023-04-01T00:48:04;14.00;57.60
4103;DHT22;2065;49.790;9.620;2023-04-01T00:50:34;14.10;57.50
4103;DHT22;2065;49.790;9.620;2023-04-01T00:53:03;14.00;57.80
4103;DHT22;2065;49.790;9.620;2023-04-01T00:55:32;13.90;58.00
4103;DHT22;2065;49.790;9.620;2023-04-01T00:58:05;13.50;57.90
4103;DHT22;2065;49.790;9.620;2023-04-01T01:00:34;13.60;58.80
4103;DHT22;2065;49.790;9.620;2023-04-01T01:03:02;13.80;58.80
4103;DHT22;2065;49.790;9.620;2023-04-01T01:05:38;13.80;57.90
4103;DHT22;2065;49.790;9.620;2023-04-01T01:08:17;13.90;58.60
4103;DHT22;2065;49.790;9.620;2023-04-01T01:10:49;14.00;58.20
4103;DHT22;2065;49.790;9.620;2023-04-01T01:13:20;14.00;57.80
4103;DHT22;2065;49.790;9.620;2023-04-01T01:15:55;14.00;57.60
4103;DHT22;2065;49.790;9.620;2023-04-01T01:18:29;14.10;57.30
4103;DHT22;2065;49.790;9.620;2023-04-01T01:21:42;14.00;56.50
4103;DHT22;2065;49.790;9.620;2023-04-01T01:24:22;14.00;56.90
4103;DHT22;2065;49.790;9.620;2023-04-01T01:26:59;13.80;57.40
4103;DHT22;2065;49.790;9.620;2023-04-01T01:35:34;13.70;57.70
4103;DHT22;2065;49.790;9.620;2023-04-01T01:38:10;13.90;58.00
4103;DHT22;2065;49.790;9.620;2023-04-01T01:40:42;14.00;56.90
4103;DHT22;2065;49.790;9.620;2023-04-01T01:43:12;13.80;57.20
4103;DHT22;2065;49.790;9.620;2023-04-01T01:45:44;13.90;57.30
4103;DHT22;2065;49.790;9.620;2023-04-01T01:48:12;13.90;56.90
4103;DHT22;2065;49.790;9.620;2023-04-01T01:50:43;13.70;57.20
4103;DHT22;2065;49.790;9.620;2023-04-01T01:53:13;13.70;57.40
4103;DHT22;2065;49.790;9.620;2023-04-01T01:55:42;14.00;57.50
4103;DHT22;2065;49.790;9.620;2023-04-01T01:58:12;13.90;58.20
4103;DHT22;2065;49.790;9.620;2023-04-01T02:00:44;14.10;57.20
4103;DHT22;2065;49.790;9.620;2023-04-01T02:03:14;13.90;57.00
4103;DHT22;2065;49.790;9.620;2023-04-01T02:05:44;13.90;57.00
4103;DHT22;2065;49.790;9.620;2023-04-01T02:08:14;14.10;57.20
4103;DHT22;2065;49.790;9.620;2023-04-01T02:10:47;14.10;56.90
4103;DHT22;2065;49.790;9.620;2023-04-01T02:13:22;14.20;55.90
4103;DHT22;2065;49.790;9.620;2023-04-01T02:15:55;14.00;56.70
4103;DHT22;2065;49.790;9.620;2023-04-01T02:18:26;14.20;56.40
4103;DHT22;2065;49.790;9.620;2023-04-01T02:20:57;14.30;56.40
4103;DHT22;2065;49.790;9.620;2023-04-01T02:23:26;14.40;56.30
4103;DHT22;2065;49.790;9.620;2023-04-01T02:25:54;14.40;56.20
4103;DHT22;2065;49.790;9.620;2023-04-01T02:28:23;14.40;56.10
4103;DHT22;2065;49.790;9.620;2023-04-01T02:30:51;14.30;55.90
4103;DHT22;2065;49.790;9.620;2023-04-01T02:33:19;14.00;56.40
4103;DHT22;2065;49.790;9.620;2023-04-01T02:35:47;14.00;55.90
4103;DHT22;2065;49.790;9.620;2023-04-01T02:38:16;14.10;56.20
4103;DHT22;2065;49.790;9.620;2023-04-01T02:40:45;14.10;56.10
4103;DHT22;2065;49.790;9.620;2023-04-01T02:43:14;14.20;55.60
4103;DHT22;2065;49.790;9.620;2023-04-01T02:45:42;14.20;55.90
4103;DHT22;2065;49.790;9.620;2023-04-01T02:48:08;14.30;55.70
4103;DHT22;2065;49.790;9.620;2023-04-01T02:50:35;14.40;55.70
4103;DHT22;2065;49.790;9.620;2023-04-01T02:53:02;14.30;54.80
4103;DHT22;2065;49.790;9.620;2023-04-01T02:55:33;14.40;55.70
4103;DHT22;2065;49.790;9.620;2023-04-01T02:58:00;14.40;56.00
4103;DHT22;2065;49.790;9.620;2023-04-01T03:00:29;14.10;55.80
4103;DHT22;2065;49.790;9.620;2023-04-01T03:02:56;14.10;55.80
4103;DHT22;2065;49.790;9.620;2023-04-01T03:05:23;14.00;55.80
4103;DHT22;2065;49.790;9.620;2023-04-01T03:07:51;13.90;56.30
4103;DHT22;2065;49.790;9.620;2023-04-01T03:10:18;13.90;56.60
4103;DHT22;2065;49.790;9.620;2023-04-01T03:12:46;14.00;56.20
4103;DHT22;2065;49.790;9.620;2023-04-01T03:15:14;14.00;56.20
4103;DHT22;2065;49.790;9.620;2023-04-01T03:17:42;14.10;56.10
4103;DHT22;2065;49.790;9.620;2023-04-01T03:20:10;14.00;55.90
4103;DHT22;2065;49.790;9.620;2023-04-01T03:22:37;14.00;56.40
4103;DHT22;2065;49.790;9.620;2023-04-01T03:25:05;13.70;55.90
4103;DHT22;2065;49.790;9.620;2023-04-01T03:27:33;13.80;56.40
4103;DHT22;2065;49.790;9.620;2023-04-01T03:30:03;13.80;56.70
4103;DHT22;2065;49.790;9.620;2023-04-01T03:32:34;13.80;56.50
4103;DHT22;2065;49.790;9.620;2023-04-01T03:35:01;14.00;56.60
4103;DHT22;2065;49.790;9.620;2023-04-01T03:37:28;14.00;56.10
4103;DHT22;2065;49.790;9.620;2023-04-01T03:39:55;13.90;56.40
4103;DHT22;2065;49.790;9.620;2023-04-01T03:42:22;13.80;56.30
4103;DHT22;2065;49.790;9.620;2023-04-01T03:44:49;14.00;57.00
4103;DHT22;2065;49.790;9.620;2023-04-01T03:47:17;13.90;56.20
4103;DHT22;2065;49.790;9.620;2023-04-01T03:49:44;13.60;56.90
4103;DHT22;2065;49.790;9.620;2023-04-01T03:52:12;13.70;56.90
4103;DHT22;2065;49.790;9.620;2023-04-01T03:54:39;13.90;56.40
4103;DHT22;2065;49.790;9.620;2023-04-01T03:57:06;14.00;56.70
4103;DHT22;2065;49.790;9.620;2023-04-01T03:59:35;14.00;56.20
4103;DHT22;2065;49.790;9.620;2023-04-01T04:02:02;13.90;56.90
4103;DHT22;2065;49.790;9.620;2023-04-01T04:04:30;13.90;56.60
4103;DHT22;2065;49.790;9.620;2023-04-01T04:06:58;14.00;56.70
4103;DHT22;2065;49.790;9.620;2023-04-01T04:09:25;14.00;56.60
4103;DHT22;2065;49.790;9.620;2023-04-01T04:11:53;14.10;56.70
4103;DHT22;2065;49.790;9.620;2023-04-01T04:14:20;14.00;56.70
4103;DHT22;2065;49.790;9.620;2023-04-01T04:16:47;14.00;56.60
4103;DHT22;2065;49.790;9.620;2023-04-01T04:19:15;14.00;56.30
4103;DHT22;2065;49.790;9.620;2023-04-01T04:21:44;14.00;55.80
4103;DHT22;2065;49.790;9.620;2023-04-01T04:24:12;14.10;55.00
4103;DHT22;2065;49.790;9.620;2023-04-01T04:26:56;14.00;55.50
4103;DHT22;2065;49.790;9.620;2023-04-01T04:29:24;13.70;56.70
4103;DHT22;2065;49.790;9.620;2023-04-01T04:31:52;13.70;56.80
4103;DHT22;2065;49.790;9.620;2023-04-01T04:34:19;13.90;56.30
4103;DHT22;2065;49.790;9.620;2023-04-01T04:36:49;13.80;55.90
4103;DHT22;2065;49.790;9.620;2023-04-01T04:39:17;13.90;56.30
4103;DHT22;2065;49.790;9.620;2023-04-01T04:41:45;13.90;56.00
4103;DHT22;2065;49.790;9.620;2023-04-01T04:44:12;13.70;56.10
4103;DHT22;2065;49.790;9.620;2023-04-01T04:46:39;13.70;56.60
4103;DHT22;2065;49.790;9.620;2023-04-01T04:49:13;13.60;56.20
4103;DHT22;2065;49.790;9.620;2023-04-01T04:51:40;13.40;56.00
4103;DHT22;2065;49.790;9.620;2023-04-01T04:54:09;13.40;56.40
4103;DHT22;2065;49.790;9.620;2023-04-01T04:56:47;13.60;56.80
4103;DHT22;2065;49.790;9.620;2023-04-01T04:59:14;13.80;56.80
4103;DHT22;2065;49.790;9.620;2023-04-01T05:01:48;14.00;56.10
4103;DHT22;2065;49.790;9.620;2023-04-01T05:04:15;13.90;56.40
4103;DHT22;2065;49.790;9.620;2023-04-01T05:06:43;13.70;56.90
4103;DHT22;2065;49.790;9.620;2023-04-01T05:09:12;13.70;57.40
4103;DHT22;2065;49.790;9.620;2023-04-01T05:11:39;13.70;56.90
4103;DHT22;2065;49.790;9.620;2023-04-01T05:14:11;13.70;57.20
4103;DHT22;2065;49.790;9.620;2023-04-01T05:16:38;13.70;57.70
4103;DHT22;2065;49.790;9.620;2023-04-01T05:19:05;13.70;57.20
4103;DHT22;2065;49.790;9.620;2023-04-01T05:21:32;13.70;57.30
4103;DHT22;2065;49.790;9.620;2023-04-01T05:24:00;13.50;57.50
4103;DHT22;2065;49.790;9.620;2023-04-01T05:26:31;13.30;58.60
4103;DHT22;2065;49.790;9.620;2023-04-01T05:28:58;13.40;57.80
4103;DHT22;2065;49.790;9.620;2023-04-01T05:31:25;13.10;58.60
4103;DHT22;2065;49.790;9.620;2023-04-01T05:33:52;13.40;58.70
4103;DHT22;2065;49.790;9.620;2023-04-01T05:36:20;13.60;58.60
4103;DHT22;2065;49.790;9.620;2023-04-01T05:38:47;13.70;57.80
4103;DHT22;2065;49.790;9.620;2023-04-01T05:41:16;13.40;58.10
4103;DHT22;2065;49.790;9.620;2023-04-01T05:43:46;13.60;58.00
4103;DHT22;2065;49.790;9.620;2023-04-01T05:46:32;13.60;58.20
4103;DHT22;2065;49.790;9.620;2023-04-01T05:49:08;13.90;57.80
4103;DHT22;2065;49.790;9.620;2023-04-01T05:51:35;13.90;57.30
4103;DHT22;2065;49.790;9.620;2023-04-01T05:54:04;13.90;56.70
4103;DHT22;2065;49.790;9.620;2023-04-01T05:56:31;14.00;57.30
4103;DHT22;2065;49.790;9.620;2023-04-01T05:59:00;14.20;57.60
4103;DHT22;2065;49.790;9.620;2023-04-01T06:01:27;14.10;56.90
4103;DHT22;2065;49.790;9.620;2023-04-01T06:03:54;14.10;57.40
4103;DHT22;2065;49.790;9.620;2023-04-01T06:06:24;14.10;56.90
4103;DHT22;2065;49.790;9.620;2023-04-01T06:08:56;14.00;56.80
4103;DHT22;2065;49.790;9.620;2023-04-01T06:11:31;14.00;57.20
4103;DHT22;2065;49.790;9.620;2023-04-01T06:14:09;13.90;57.30
4103;DHT22;2065;49.790;9.620;2023-04-01T06:16:50;13.90;57.50
4103;DHT22;2065;49.790;9.620;2023-04-01T06:19:29;13.80;57.40
4103;DHT22;2065;49.790;9.620;2023-04-01T06:25:37;13.70;58.30
4103;DHT22;2065;49.790;9.620;2023-04-01T06:31:05;13.60;58.10
4103;DHT22;2065;49.790;9.620;2023-04-01T06:33:51;13.80;58.50
4103;DHT22;2065;49.790;9.620;2023-04-01T06:36:38;13.80;58.70
4103;DHT22;2065;49.790;9.620;2023-04-01T06:39:26;13.90;58.10
4103;DHT22;2065;49.790;9.620;2023-04-01T06:42:13;14.00;58.20
4103;DHT22;2065;49.790;9.620;2023-04-01T06:44:48;14.20;58.10
4103;DHT22;2065;49.790;9.620;2023-04-01T06:47:49;14.20;58.00
4103;DHT22;2065;49.790;9.620;2023-04-01T06:50:41;14.30;57.90
4103;DHT22;2065;49.790;9.620;2023-04-01T06:53:48;14.00;57.20
4103;DHT22;2065;49.790;9.620;2023-04-01T06:56:38;14.00;57.90
4103;DHT22;2065;49.790;9.620;2023-04-01T06:59:15;14.10;58.50
4103;DHT22;2065;49.790;9.620;2023-04-01T07:01:47;14.00;58.40
4103;DHT22;2065;49.790;9.620;2023-04-01T07:04:20;13.90;58.70
4103;DHT22;2065;49.790;9.620;2023-04-01T07:06:53;14.00;59.10
4103;DHT22;2065;49.790;9.620;2023-04-01T07:09:24;14.10;57.80
4103;DHT22;2065;49.790;9.620;2023-04-01T07:12:27;14.00;58.30
4103;DHT22;2065;49.790;9.620;2023-04-01T07:15:19;14.00;57.90
4103;DHT22;2065;49.790;9.620;2023-04-01T07:17:50;13.90;59.00
4103;DHT22;2065;49.790;9.620;2023-04-01T07:20:24;14.00;59.00
4103;DHT22;2065;49.790;9.620;2023-04-01T07:22:54;14.10;58.80
4103;DHT22;2065;49.790;9.620;2023-04-01T07:25:33;14.10;58.70
4103;DHT22;2065;49.790;9.620;2023-04-01T07:28:20;14.40;58.60
4103;DHT22;2065;49.790;9.620;2023-04-01T07:31:07;14.30;59.10
4103;DHT22;2065;49.790;9.620;2023-04-01T07:33:41;14.40;58.00
4103;DHT22;2065;49.790;9.620;2023-04-01T07:36:17;14.30;58.10
4103;DHT22;2065;49.790;9.620;2023-04-01T07:38:56;14.30;58.40
4103;DHT22;2065;49.790;9.620;2023-04-01T07:41:51;14.40;58.60
4103;DHT22;2065;49.790;9.620;2023-04-01T07:44:24;14.30;58.40
4103;DHT22;2065;49.790;9.620;2023-04-01T07:46:59;14.30;59.60
4103;DHT22;2065;49.790;9.620;2023-04-01T07:49:32;14.20;59.60
4103;DHT22;2065;49.790;9.620;2023-04-01T07:52:06;14.10;59.70
4103;DHT22;2065;49.790;9.620;2023-04-01T07:54:44;14.00;60.00
4103;DHT22;2065;49.790;9.620;2023-04-01T07:57:19;14.00;60.00
4103;DHT22;2065;49.790;9.620;2023-04-01T07:59:59;14.10;60.60
4103;DHT22;2065;49.790;9.620;2023-04-01T08:02:58;14.10;61.40
4103;DHT22;2065;49.790;9.620;2023-04-01T08:05:39;14.10;61.10
4103;DHT22;2065;49.790;9.620;2023-04-01T08:08:13;14.30;61.80
4103;DHT22;2065;49.790;9.620;2023-04-01T08:11:07;14.20;60.90
4103;DHT22;2065;49.790;9.620;2023-04-01T08:14:05;14.20;61.80
4103;DHT22;2065;49.790;9.620;2023-04-01T08:16:45;14.20;62.20
4103;DHT22;2065;49.790;9.620;2023-04-01T08:19:28;14.20;61.70
4103;DHT22;2065;49.790;9.620;2023-04-01T08:22:01;13.90;60.60
4103;DHT22;2065;49.790;9.620;2023-04-01T08:24:35;13.90;61.50
4103;DHT22;2065;49.790;9.620;2023-04-01T08:27:11;13.80;61.70
4103;DHT22;2065;49.790;9.620;2023-04-01T08:29:42;13.80;62.90
4103;DHT22;2065;49.790;9.620;2023-04-01T08:32:15;13.90;62.30
4103;DHT22;2065;49.790;9.620;2023-04-01T08:34:47;14.20;62.00
4103;DHT22;2065;49.790;9.620;2023-04-01T08:37:28;14.30;61.70
4103;DHT22;2065;49.790;9.620;2023-04-01T08:40:04;14.30;60.50
4103;DHT22;2065;49.790;9.620;2023-04-01T08:42:49;14.20;60.90
4103;DHT22;2065;49.790;9.620;2023-04-01T08:45:30;14.30;62.30
4103;DHT22;2065;49.790;9.620;2023-04-01T08:48:27;14.50;61.80
4103;DHT22;2065;49.790;9.620;2023-04-01T08:51:23;14.30;61.80
4103;DHT22;2065;49.790;9.620;2023-04-01T08:54:05;14.30;61.60
4103;DHT22;2065;49.790;9.620;2023-04-01T08:56:42;14.50;62.90
4103;DHT22;2065;49.790;9.620;2023-04-01T08:59:27;14.70;62.60
4103;DHT22;2065;49.790;9.620;2023-04-01T09:05:29;14.90;62.20
4103;DHT22;2065;49.790;9.620;2023-04-01T09:08:09;14.90;61.60
4103;DHT22;2065;49.790;9.620;2023-04-01T09:10:55;14.80;60.80
4103;DHT22;2065;49.790;9.620;2023-04-01T09:14:06;14.40;61.70
4103;DHT22;2065;49.790;9.620;2023-04-01T09:20:08;14.60;62.00
4103;DHT22;2065;49.790;9.620;2023-04-01T09:22:50;14.60;61.40
4103;DHT22;2065;49.790;9.620;2023-04-01T09:25:29;14.80;63.50
4103;DHT22;2065;49.790;9.620;2023-04-01T09:28:05;14.70;61.30
4103;DHT22;2065;49.790;9.620;2023-04-01T09:36:44;14.60;60.90
4103;DHT22;2065;49.790;9.620;2023-04-01T09:39:29;14.50;63.40
4103;DHT22;2065;49.790;9.620;2023-04-01T09:42:26;14.50;62.40
4103;DHT22;2065;49.790;9.620;2023-04-01T09:45:14;14.50;64.30
4103;DHT22;2065;49.790;9.620;2023-04-01T09:47:57;14.40;63.40
4103;DHT22;2065;49.790;9.620;2023-04-01T09:50:35;14.50;63.20
4103;DHT22;2065;49.790;9.620;2023-04-01T09:53:18;14.60;63.60
4103;DHT22;2065;49.790;9.620;2023-04-01T09:59:04;14.70;63.50
4103;DHT22;2065;49.790;9.620;2023-04-01T10:02:44;15.10;63.60
4103;DHT22;2065;49.790;9.620;2023-04-01T10:05:50;15.20;64.10
4103;DHT22;2065;49.790;9.620;2023-04-01T10:08:56;15.50;62.10
4103;DHT22;2065;49.790;9.620;2023-04-01T10:11:58;15.20;61.50
4103;DHT22;2065;49.790;9.620;2023-04-01T10:21:02;15.40;62.50
4103;DHT22;2065;49.790;9.620;2023-04-01T10:23:48;15.20;61.40
4103;DHT22;2065;49.790;9.620;2023-04-01T10:26:38;15.10;62.60
4103;DHT22;2065;49.790;9.620;2023-04-01T10:30:00;15.00;63.30
4103;DHT22;2065;49.790;9.620;2023-04-01T10:32:51;14.90;64.10
4103;DHT22;2065;49.790;9.620;2023-04-01T10:36:01;14.70;65.70
4103;DHT22;2065;49.790;9.620;2023-04-01T10:38:48;14.80;64.60
4103;DHT22;2065;49.790;9.620;2023-04-01T10:41:37;15.00;64.80
4103;DHT22;2065;49.790;9.620;2023-04-01T10:44:59;15.20;65.80
4103;DHT22;2065;49.790;9.620;2023-04-01T10:48:01;15.60;63.90
4103;DHT22;2065;49.790;9.620;2023-04-01T10:51:05;15.30;63.00
4103;DHT22;2065;49.790;9.620;2023-04-01T10:53:41;15.30;63.90
4103;DHT22;2065;49.790;9.620;2023-04-01T10:56:39;15.30;64.40
4103;DHT22;2065;49.790;9.620;2023-04-01T10:59:57;15.50;63.90
4103;DHT22;2065;49.790;9.620;2023-04-01T11:12:57;15.40;64.20
4103;DHT22;2065;49.790;9.620;2023-04-01T11:15:52;15.40;65.00
4103;DHT22;2065;49.790;9.620;2023-04-01T11:19:02;15.60;65.30
4103;DHT22;2065;49.790;9.620;2023-04-01T11:21:56;15.60;65.30
4103;DHT22;2065;49.790;9.620;2023-04-01T11:27:56;15.90;63.60
4103;DHT22;2065;49.790;9.620;2023-04-01T11:30:44;15.90;64.60
4103;DHT22;2065;49.790;9.620;2023-04-01T11:33:18;15.90;64.60
4103;DHT22;2065;49.790;9.620;2023-04-01T11:38:54;15.90;64.60
4103;DHT22;2065;49.790;9.620;2023-04-01T11:41:47;15.90;65.00
4103;DHT22;2065;49.790;9.620;2023-04-01T11:44:40;15.90;64.50
4103;DHT22;2065;49.790;9.620;2023-04-01T11:50:20;16.20;65.00
4103;DHT22;2065;49.790;9.620;2023-04-01T11:53:00;16.10;63.40
4103;DHT22;2065;49.790;9.620;2023-04-01T11:55:37;16.00;64.50
4103;DHT22;2065;49.790;9.620;2023-04-01T11:58:31;16.00;64.80
4103;DHT22;2065;49.790;9.620;2023-04-01T12:01:22;16.00;64.60
4103;DHT22;2065;49.790;9.620;2023-04-01T12:06:59;15.90;63.60
4103;DHT22;2065;49.790;9.620;2023-04-01T12:09:36;15.60;64.10
4103;DHT22;2065;49.790;9.620;2023-04-01T12:12:15;15.80;65.30
4103;DHT22;2065;49.790;9.620;2023-04-01T12:14:53;15.90;66.30
4103;DHT22;2065;49.790;9.620;2023-04-01T12:17:30;16.10;66.20
4103;DHT22;2065;49.790;9.620;2023-04-01T12:20:05;16.10;65.50
4103;DHT22;2065;49.790;9.620;2023-04-01T12:22:47;16.20;64.30
4103;DHT22;2065;49.790;9.620;2023-04-01T12:25:27;16.20;65.10
4103;DHT22;2065;49.790;9.620;2023-04-01T12:28:06;16.30;65.20
4103;DHT22;2065;49.790;9.620;2023-04-01T12:30:49;16.00;64.70
4103;DHT22;2065;49.790;9.620;2023-04-01T12:33:44;16.10;65.30
4103;DHT22;2065;49.790;9.620;2023-04-01T12:36:19;16.20;65.40
4103;DHT22;2065;49.790;9.620;2023-04-01T12:39:05;16.00;65.80
4103;DHT22;2065;49.790;9.620;2023-04-01T12:41:44;16.00;65.60
4103;DHT22;2065;49.790;9.620;2023-04-01T12:44:39;15.90;64.90
4103;DHT22;2065;49.790;9.620;2023-04-01T12:47:20;15.70;65.10
4103;DHT22;2065;49.790;9.620;2023-04-01T12:50:09;15.50;66.50
4103;DHT22;2065;49.790;9.620;2023-04-01T12:52:49;15.60;67.00
4103;DHT22;2065;49.790;9.620;2023-04-01T12:55:36;15.80;67.20
4103;DHT22;2065;49.790;9.620;2023-04-01T12:58:31;15.70;65.80
4103;DHT22;2065;49.790;9.620;2023-04-01T13:01:16;15.80;65.30
4103;DHT22;2065;49.790;9.620;2023-04-01T13:04:16;15.90;65.60
4103;DHT22;2065;49.790;9.620;2023-04-01T13:07:07;16.00;65.80
4103;DHT22;2065;49.790;9.620;2023-04-01T13:09:45;15.80;66.10
4103;DHT22;2065;49.790;9.620;2023-04-01T13:12:33;15.80;66.00
4103;DHT22;2065;49.790;9.620;2023-04-01T13:15:24;15.90;66.30
4103;DHT22;2065;49.790;9.620;2023-04-01T13:17:59;15.90;65.90
4103;DHT22;2065;49.790;9.620;2023-04-01T13:20:36;15.80;65.00
4103;DHT22;2065;49.790;9.620;2023-04-01T13:23:19;15.60;67.20
4103;DHT22;2065;49.790;9.620;2023-04-01T13:25:51;15.90;65.70
4103;DHT22;2065;49.790;9.620;2023-04-01T13:28:24;16.00;66.40
4103;DHT22;2065;49.790;9.620;2023-04-01T13:30:57;15.90;66.20
4103;DHT22;2065;49.790;9.620;2023-04-01T13:33:31;15.80;66.50
4103;DHT22;2065;49.790;9.620;2023-04-01T13:36:13;15.80;66.90
4103;DHT22;2065;49.790;9.620;2023-04-01T13:38:59;15.90;67.30
4103;DHT22;2065;49.790;9.620;2023-04-01T13:41:44;15.90;65.60
4103;DHT22;2065;49.790;9.620;2023-04-01T13:44:17;15.90;66.40
4103;DHT22;2065;49.790;9.620;2023-04-01T13:47:07;15.80;65.70
4103;DHT22;2065;49.790;9.620;2023-04-01T13:52:38;15.80;66.80
4103;DHT22;2065;49.790;9.620;2023-04-01T13:55:30;16.00;66.40
4103;DHT22;2065;49.790;9.620;2023-04-01T13:58:13;16.00;67.50
4103;DHT22;2065;49.790;9.620;2023-04-01T14:00:54;15.80;66.80
4103;DHT22;2065;49.790;9.620;2023-04-01T14:03:30;15.80;67.20
4103;DHT22;2065;49.790;9.620;2023-04-01T14:06:23;16.00;66.90
4103;DHT22;2065;49.790;9.620;2023-04-01T14:09:22;16.20;67.00
4103;DHT22;2065;49.790;9.620;2023-04-01T14:11:59;16.40;67.40
4103;DHT22;2065;49.790;9.620;2023-04-01T14:14:36;16.40;66.00
4103;DHT22;2065;49.790;9.620;2023-04-01T14:17:13;16.30;66.30
4103;DHT22;2065;49.790;9.620;2023-04-01T14:20:14;16.30;66.70
4103;DHT22;2065;49.790;9.620;2023-04-01T14:22:52;16.10;66.50
4103;DHT22;2065;49.790;9.620;2023-04-01T14:28:31;16.00;67.70
4103;DHT22;2065;49.790;9.620;2023-04-01T14:31:27;16.10;67.40
4103;DHT22;2065;49.790;9.620;2023-04-01T14:34:05;16.00;67.70
4103;DHT22;2065;49.790;9.620;2023-04-01T14:37:07;15.90;67.70
4103;DHT22;2065;49.790;9.620;2023-04-01T14:40:14;16.10;68.10
4103;DHT22;2065;49.790;9.620;2023-04-01T14:43:03;16.30;66.20
4103;DHT22;2065;49.790;9.620;2023-04-01T14:45:58;16.40;66.40
4103;DHT22;2065;49.790;9.620;2023-04-01T14:48:31;16.30;66.70
4103;DHT22;2065;49.790;9.620;2023-04-01T14:51:08;16.20;66.40
4103;DHT22;2065;49.790;9.620;2023-04-01T14:53:39;16.10;67.30
4103;DHT22;2065;49.790;9.620;2023-04-01T14:56:11;15.80;66.70
4103;DHT22;2065;49.790;9.620;2023-04-01T14:58:44;15.90;67.20
4103;DHT22;2065;49.790;9.620;2023-04-01T15:01:20;15.80;67.20
4103;DHT22;2065;49.790;9.620;2023-04-01T15:03:57;15.90;67.70
4103;DHT22;2065;49.790;9.620;2023-04-01T15:06:54;15.80;67.20
4103;DHT22;2065;49.790;9.620;2023-04-01T15:09:27;16.00;67.80
4103;DHT22;2065;49.790;9.620;2023-04-01T15:12:03;16.10;66.70
4103;DHT22;2065;49.790;9.620;2023-04-01T15:14:56;16.20;66.90
4103;DHT22;2065;49.790;9.620;2023-04-01T15:18:00;16.20;66.40
4103;DHT22;2065;49.790;9.620;2023-04-01T15:20:52;16.00;66.60
4103;DHT22;2065;49.790;9.620;2023-04-01T15:23:34;16.10;65.80
4103;DHT22;2065;49.790;9.620;2023-04-01T15:26:22;15.90;66.10
4103;DHT22;2065;49.790;9.620;2023-04-01T15:29:04;15.80;66.60
4103;DHT22;2065;49.790;9.620;2023-04-01T15:31:41;15.60;66.70
4103;DHT22;2065;49.790;9.620;2023-04-01T15:34:23;15.70;66.90
4103;DHT22;2065;49.790;9.620;2023-04-01T15:36:56;15.40;66.50
4103;DHT22;2065;49.790;9.620;2023-04-01T15:39:31;15.30;68.10
4103;DHT22;2065;49.790;9.620;2023-04-01T15:42:19;15.50;68.20
4103;DHT22;2065;49.790;9.620;2023-04-01T15:45:05;15.60;67.20
4103;DHT22;2065;49.790;9.620;2023-04-01T15:47:40;15.50;66.80
4103;DHT22;2065;49.790;9.620;2023-04-01T15:50:50;15.70;67.50
4103;DHT22;2065;49.790;9.620;2023-04-01T15:53:35;15.50;66.80
4103;DHT22;2065;49.790;9.620;2023-04-01T15:56:15;15.50;67.30
4103;DHT22;2065;49.790;9.620;2023-04-01T15:58:52;15.20;68.40
4103;DHT22;2065;49.790;9.620;2023-04-01T16:01:33;15.20;68.00
4103;DHT22;2065;49.790;9.620;2023-04-01T16:04:15;15.00;68.50
4103;DHT22;2065;49.790;9.620;2023-04-01T16:06:57;14.80;69.10
4103;DHT22;2065;49.790;9.620;2023-04-01T16:09:47;15.10;69.60
4103;DHT22;2065;49.790;9.620;2023-04-01T16:12:19;15.20;68.70
4103;DHT22;2065;49.790;9.620;2023-04-01T16:15:03;15.40;68.30
4103;DHT22;2065;49.790;9.620;2023-04-01T16:17:59;15.20;67.80
4103;DHT22;2065;49.790;9.620;2023-04-01T16:20:43;15.30;67.40
4103;DHT22;2065;49.790;9.620;2023-04-01T16:23:18;15.30;68.40
4103;DHT22;2065;49.790;9.620;2023-04-01T16:25:52;15.40;67.70
4103;DHT22;2065;49.790;9.620;2023-04-01T16:28:25;15.30;67.30
4103;DHT22;2065;49.790;9.620;2023-04-01T16:30:58;15.40;67.80
4103;DHT22;2065;49.790;9.620;2023-04-01T16:33:35;15.40;67.10
4103;DHT22;2065;49.790;9.620;2023-04-01T16:36:13;15.40;67.10
4103;DHT22;2065;49.790;9.620;2023-04-01T16:38:50;15.30;66.80
4103;DHT22;2065;49.790;9.620;2023-04-01T16:41:23;15.30;66.70
4103;DHT22;2065;49.790;9.620;2023-04-01T16:43:54;15.40;67.20
4103;DHT22;2065;49.790;9.620;2023-04-01T16:46:33;15.40;67.10
4103;DHT22;2065;49.790;9.620;2023-04-01T16:49:13;15.50;66.70
4103;DHT22;2065;49.790;9.620;2023-04-01T16:51:46;15.60;66.30
4103;DHT22;2065;49.790;9.620;2023-04-01T16:54:28;15.80;67.60
4103;DHT22;2065;49.790;9.620;2023-04-01T16:57:03;16.00;67.40
4103;DHT22;2065;49.790;9.620;2023-04-01T16:59:35;15.90;63.80
4103;DHT22;2065;49.790;9.620;2023-04-01T17:02:08;15.60;65.30
4103;DHT22;2065;49.790;9.620;2023-04-01T17:04:40;15.60;65.30
4103;DHT22;2065;49.790;9.620;2023-04-01T17:07:22;15.60;65.00
4103;DHT22;2065;49.790;9.620;2023-04-01T17:10:04;15.50;65.20
4103;DHT22;2065;49.790;9.620;2023-04-01T17:12:39;15.50;65.40
4103;DHT22;2065;49.790;9.620;2023-04-01T17:15:17;15.40;65.30
4103;DHT22;2065;49.790;9.620;2023-04-01T17:17:53;15.30;64.90
4103;DHT22;2065;49.790;9.620;2023-04-01T17:20:35;15.30;65.50
4103;DHT22;2065;49.790;9.620;2023-04-01T17:23:14;15.10;64.90
4103;DHT22;2065;49.790;9.620;2023-04-01T17:25:58;15.00;65.30
4103;DHT22;2065;49.790;9.620;2023-04-01T17:28:36;14.80;65.70
4103;DHT22;2065;49.790;9.620;2023-04-01T17:31:11;14.90;66.60
4103;DHT22;2065;49.790;9.620;2023-04-01T17:36:56;14.90;65.80
4103;DHT22;2065;49.790;9.620;2023-04-01T17:39:35;14.80;66.10
4103;DHT22;2065;49.790;9.620;2023-04-01T17:42:10;15.00;65.90
4103;DHT22;2065;49.790;9.620;2023-04-01T17:44:51;15.10;65.10
4103;DHT22;2065;49.790;9.620;2023-04-01T17:47:33;14.90;65.40
4103;DHT22;2065;49.790;9.620;2023-04-01T17:50:14;15.00;64.70
4103;DHT22;2065;49.790;9.620;2023-04-01T17:52:52;14.70;64.90
4103;DHT22;2065;49.790;9.620;2023-04-01T17:55:37;14.70;66.00
4103;DHT22;2065;49.790;9.620;2023-04-01T17:58:16;14.60;65.00
4103;DHT22;2065;49.790;9.620;2023-04-01T18:00:54;14.60;65.30
4103;DHT22;2065;49.790;9.620;2023-04-01T18:06:32;14.50;65.70
4103;DHT22;2065;49.790;9.620;2023-04-01T18:09:08;14.40;65.50
4103;DHT22;2065;49.790;9.620;2023-04-01T18:11:51;14.40;65.60
4103;DHT22;2065;49.790;9.620;2023-04-01T18:14:58;14.40;66.40
4103;DHT22;2065;49.790;9.620;2023-04-01T18:17:41;14.40;65.80
4103;DHT22;2065;49.790;9.620;2023-04-01T18:20:20;14.40;65.40
4103;DHT22;2065;49.790;9.620;2023-04-01T18:22:56;14.40;65.70